sensor_id;sensor_type;location;lat;lon;timestamp;pressure;altitude;pressure_sealevel;temperature;humidity
74232;BME280;62590;52.430;4.902;2022-09-16T00:00:25;100846.25;;;11.81;67.65
74232;BME280;62590;52.430;4.902;2022-09-16T00:02:51;100845.50;;;11.98;67.66
74232;BME280;62590;52.430;4.902;2022-09-16T00:05:17;100845.72;;;12.14;67.67
74232;BME280;62590;52.430;4.902;2022-09-16T00:07:43;100843.22;;;12.03;67.68
74232;BME280;62590;52.430;4.902;2022-09-16T00:10:09;100839.25;;;11.98;67.66
74232;BME280;62590;52.430;4.902;2022-09-16T00:12:35;100840.22;;;12.16;67.67
74232;BME280;62590;52.430;4.902;2022-09-16T00:15:00;100836.94;;;12.12;67.67
74232;BME280;62590;52.430;4.902;2022-09-16T00:17:26;100842.47;;;12.20;67.67
74232;BME280;62590;52.430;4.902;2022-09-16T00:19:51;100851.75;;;11.99;67.66
74232;BME280;62590;52.430;4.902;2022-09-16T00:22:17;100859.28;;;11.76;67.65
74232;BME280;62590;52.430;4.902;2022-09-16T00:24:42;100869.59;;;11.71;67.64
74232;BME280;62590;52.430;4.902;2022-09-16T00:27:08;100869.59;;;11.81;67.64
74232;BME280;62590;52.430;4.902;2022-09-16T00:29:33;100864.09;;;11.73;67.65
74232;BME280;62590;52.430;4.902;2022-09-16T00:31:59;100852.06;;;11.77;67.65
74232;BME280;62590;52.430;4.902;2022-09-16T00:34:24;100856.69;;;11.84;67.66
74232;BME280;62590;52.430;4.902;2022-09-16T00:36:50;100850.91;;;11.79;67.65
74232;BME280;62590;52.430;4.902;2022-09-16T00:39:15;100852.31;;;11.93;67.65
74232;BME280;62590;52.430;4.902;2022-09-16T00:41:41;100852.75;;;11.79;67.65
74232;BME280;62590;52.430;4.902;2022-09-16T00:47:12;100845.38;;;11.90;67.66
74232;BME280;62590;52.430;4.902;2022-09-16T00:49:38;100849.59;;;12.02;67.67
74232;BME280;62590;52.430;4.902;2022-09-16T00:52:05;100850.84;;;12.08;67.66
74232;BME280;62590;52.430;4.902;2022-09-16T00:54:33;100852.53;;;12.09;67.68
74232;BME280;62590;52.430;4.902;2022-09-16T00:57:00;100865.91;;;11.91;67.66
74232;BME280;62590;52.430;4.902;2022-09-16T00:59:36;100861.22;;;12.03;67.67
74232;BME280;62590;52.430;4.902;2022-09-16T01:02:06;100863.75;;;12.04;67.66
74232;BME280;62590;52.430;4.902;2022-09-16T01:04:43;100865.44;;;12.05;67.66
74232;BME280;62590;52.430;4.902;2022-09-16T01:07:11;100875.25;;;11.78;67.65
74232;BME280;62590;52.430;4.902;2022-09-16T01:09:38;100864.22;;;11.52;67.63
74232;BME280;62590;52.430;4.902;2022-09-16T01:12:04;100863.66;;;11.67;67.63
74232;BME280;62590;52.430;4.902;2022-09-16T01:14:29;100867.31;;;11.57;67.63
74232;BME280;62590;52.430;4.902;2022-09-16T01:34:02;100843.69;;;11.60;67.63
74232;BME280;62590;52.430;4.902;2022-09-16T01:45:38;100848.22;;;11.60;67.62
74232;BME280;62590;52.430;4.902;2022-09-16T01:47:52;100849.38;;;11.57;67.63
74232;BME280;62590;52.430;4.902;2022-09-16T01:50:27;100850.50;;;11.74;67.63
74232;BME280;62590;52.430;4.902;2022-09-16T01:56:02;100893.03;;;11.21;67.59
74232;BME280;62590;52.430;4.902;2022-09-16T01:58:54;100890.47;;;11.01;67.59
74232;BME280;62590;52.430;4.902;2022-09-16T02:01:24;100889.03;;;10.87;67.57
74232;BME280;62590;52.430;4.902;2022-09-16T02:03:56;100893.09;;;10.82;67.58
74232;BME280;62590;52.430;4.902;2022-09-16T02:06:24;100883.13;;;11.03;67.59
74232;BME280;62590;52.430;4.902;2022-09-16T02:09:08;100876.19;;;10.91;67.58
74232;BME280;62590;52.430;4.902;2022-09-16T02:11:37;100876.78;;;11.04;67.60
74232;BME280;62590;52.430;4.902;2022-09-16T02:14:17;100867.72;;;11.05;67.59
74232;BME280;62590;52.430;4.902;2022-09-16T02:16:59;100859.53;;;11.16;67.61
74232;BME280;62590;52.430;4.902;2022-09-16T02:19:34;100859.09;;;11.49;67.61
74232;BME280;62590;52.430;4.902;2022-09-16T02:22:06;100858.69;;;11.34;67.61
74232;BME280;62590;52.430;4.902;2022-09-16T02:24:33;100854.44;;;11.41;67.62
74232;BME280;62590;52.430;4.902;2022-09-16T02:27:03;100854.59;;;11.49;67.64
74232;BME280;62590;52.430;4.902;2022-09-16T02:29:41;100852.91;;;11.48;67.61
74232;BME280;62590;52.430;4.902;2022-09-16T02:32:09;100874.25;;;11.40;67.61
74232;BME280;62590;52.430;4.902;2022-09-16T02:34:40;100872.53;;;11.39;67.62
74232;BME280;62590;52.430;4.902;2022-09-16T02:37:29;100882.28;;;11.21;67.60
74232;BME280;62590;52.430;4.902;2022-09-16T02:39:57;100886.69;;;11.13;67.60
74232;BME280;62590;52.430;4.902;2022-09-16T02:42:27;100878.06;;;11.19;67.60
74232;BME280;62590;52.430;4.902;2022-09-16T02:44:53;100876.47;;;10.97;67.58
74232;BME280;62590;52.430;4.902;2022-09-16T02:50:12;100873.06;;;10.95;67.58
74232;BME280;62590;52.430;4.902;2022-09-16T02:52:56;100871.81;;;10.99;67.58
74232;BME280;62590;52.430;4.902;2022-09-16T02:57:49;100859.97;;;11.11;67.58
74232;BME280;62590;52.430;4.902;2022-09-16T03:00:15;100855.41;;;11.12;67.60
74232;BME280;62590;52.430;4.902;2022-09-16T03:02:40;100855.16;;;11.15;67.59
74232;BME280;62590;52.430;4.902;2022-09-16T03:05:06;100858.78;;;10.95;67.58
74232;BME280;62590;52.430;4.902;2022-09-16T03:07:34;100854.13;;;10.78;67.57
74232;BME280;62590;52.430;4.902;2022-09-16T03:10:00;100848.34;;;11.01;67.58
74232;BME280;62590;52.430;4.902;2022-09-16T03:13:04;100843.84;;;11.02;67.60
74232;BME280;62590;52.430;4.902;2022-09-16T03:18:27;100832.69;;;11.25;67.60
74232;BME280;62590;52.430;4.902;2022-09-16T03:23:48;100836.63;;;11.12;67.59
74232;BME280;62590;52.430;4.902;2022-09-16T03:29:18;100843.56;;;11.05;67.60
74232;BME280;62590;52.430;4.902;2022-09-16T03:32:26;100847.22;;;11.13;67.58
74232;BME280;62590;52.430;4.902;2022-09-16T03:35:07;100847.22;;;11.23;67.60
74232;BME280;62590;52.430;4.902;2022-09-16T03:37:34;100849.47;;;11.08;67.58
74232;BME280;62590;52.430;4.902;2022-09-16T03:40:10;100846.66;;;11.10;67.60
74232;BME280;62590;52.430;4.902;2022-09-16T03:42:42;100857.56;;;11.18;67.60
74232;BME280;62590;52.430;4.902;2022-09-16T03:45:19;100847.66;;;11.18;67.60
74232;BME280;62590;52.430;4.902;2022-09-16T03:47:47;100843.16;;;11.19;67.60
74232;BME280;62590;52.430;4.902;2022-09-16T03:50:14;100839.06;;;11.24;67.61
74232;BME280;62590;52.430;4.902;2022-09-16T03:52:39;100844.69;;;11.21;67.60
74232;BME280;62590;52.430;4.902;2022-09-16T03:55:05;100845.25;;;11.06;67.59
74232;BME280;62590;52.430;4.902;2022-09-16T03:57:32;100847.22;;;11.13;67.59
74232;BME280;62590;52.430;4.902;2022-09-16T03:59:57;100843.94;;;11.00;67.59
74232;BME280;62590;52.430;4.902;2022-09-16T04:02:22;100846.06;;;10.97;67.59
74232;BME280;62590;52.430;4.902;2022-09-16T04:04:48;100853.75;;;11.11;67.59
74232;BME280;62590;52.430;4.902;2022-09-16T04:07:14;100852.53;;;10.75;67.57
74232;BME280;62590;52.430;4.902;2022-09-16T04:09:39;100855.25;;;10.85;67.57
74232;BME280;62590;52.430;4.902;2022-09-16T04:12:06;100835.19;;;10.79;67.57
74232;BME280;62590;52.430;4.902;2022-09-16T04:14:32;100845.09;;;10.88;67.59
74232;BME280;62590;52.430;4.902;2022-09-16T04:16:58;100837.44;;;10.93;67.58
74232;BME280;62590;52.430;4.902;2022-09-16T04:19:24;100843.69;;;11.03;67.60
74232;BME280;62590;52.430;4.902;2022-09-16T04:21:49;100845.09;;;10.98;67.59
74232;BME280;62590;52.430;4.902;2022-09-16T04:24:14;100842.81;;;10.84;67.58
74232;BME280;62590;52.430;4.902;2022-09-16T04:26:40;100836.03;;;10.99;67.58
74232;BME280;62590;52.430;4.902;2022-09-16T04:29:06;100840.72;;;10.87;67.57
74232;BME280;62590;52.430;4.902;2022-09-16T04:31:32;100836.19;;;10.97;67.58
74232;BME280;62590;52.430;4.902;2022-09-16T04:33:57;100843.84;;;11.02;67.58
74232;BME280;62590;52.430;4.902;2022-09-16T04:36:24;100839.06;;;11.15;67.61
74232;BME280;62590;52.430;4.902;2022-09-16T04:38:50;100854.28;;;11.05;67.59
74232;BME280;62590;52.430;4.902;2022-09-16T04:41:20;100852.88;;;11.10;67.59
74232;BME280;62590;52.430;4.902;2022-09-16T04:43:50;100852.31;;;11.07;67.58
74232;BME280;62590;52.430;4.902;2022-09-16T04:46:16;100850.91;;;11.03;67.59
74232;BME280;62590;52.430;4.902;2022-09-16T04:48:42;100850.50;;;11.07;67.59
74232;BME280;62590;52.430;4.902;2022-09-16T04:51:09;100856.38;;;10.92;67.59
74232;BME280;62590;52.430;4.902;2022-09-16T04:53:36;100858.66;;;10.87;67.57
74232;BME280;62590;52.430;4.902;2022-09-16T04:56:04;100841.53;;;10.88;67.58
74232;BME280;62590;52.430;4.902;2022-09-16T04:58:30;100837.56;;;10.82;67.57
74232;BME280;62590;52.430;4.902;2022-09-16T05:00:55;100849.88;;;10.85;67.57
74232;BME280;62590;52.430;4.902;2022-09-16T05:03:20;100854.97;;;10.97;67.58
74232;BME280;62590;52.430;4.902;2022-09-16T05:05:46;100857.66;;;10.88;67.57
74232;BME280;62590;52.430;4.902;2022-09-16T05:08:11;100855.25;;;10.85;67.58
74232;BME280;62590;52.430;4.902;2022-09-16T05:10:37;100850.75;;;10.85;67.57
74232;BME280;62590;52.430;4.902;2022-09-16T05:13:02;100838.72;;;10.89;67.58
74232;BME280;62590;52.430;4.902;2022-09-16T05:15:27;100849.19;;;10.92;67.58
74232;BME280;62590;52.430;4.902;2022-09-16T05:17:53;100846.06;;;10.97;67.58
74232;BME280;62590;52.430;4.902;2022-09-16T05:20:18;100847.34;;;11.02;67.60
74232;BME280;62590;52.430;4.902;2022-09-16T05:22:43;100848.50;;;11.00;67.58
74232;BME280;62590;52.430;4.902;2022-09-16T05:25:09;100854.69;;;11.00;67.58
74232;BME280;62590;52.430;4.902;2022-09-16T05:27:34;100859.25;;;11.00;67.57
74232;BME280;62590;52.430;4.902;2022-09-16T05:29:59;100865.03;;;11.05;67.59
74232;BME280;62590;52.430;4.902;2022-09-16T05:32:25;100874.34;;;11.01;67.58
74232;BME280;62590;52.430;4.902;2022-09-16T05:34:51;100881.53;;;10.81;67.56
74232;BME280;62590;52.430;4.902;2022-09-16T05:37:17;100893.88;;;10.53;67.54
74232;BME280;62590;52.430;4.902;2022-09-16T05:39:42;100894.25;;;10.49;67.55
74232;BME280;62590;52.430;4.902;2022-09-16T05:42:08;100895.63;;;10.43;67.54
74232;BME280;62590;52.430;4.902;2022-09-16T05:44:34;100903.16;;;10.19;67.53
74232;BME280;62590;52.430;4.902;2022-09-16T05:46:59;100904.00;;;10.20;67.54
74232;BME280;62590;52.430;4.902;2022-09-16T05:49:25;100898.06;;;10.16;67.53
74232;BME280;62590;52.430;4.902;2022-09-16T05:51:51;100918.91;;;10.13;67.53
74232;BME280;62590;52.430;4.902;2022-09-16T05:54:17;100928.63;;;10.34;67.54
74232;BME280;62590;52.430;4.902;2022-09-16T05:56:43;100912.50;;;10.25;67.53
74232;BME280;62590;52.430;4.902;2022-09-16T05:59:10;100895.91;;;10.10;67.52
74232;BME280;62590;52.430;4.902;2022-09-16T06:01:35;100887.53;;;10.34;67.53
74232;BME280;62590;52.430;4.902;2022-09-16T06:04:02;100884.31;;;10.10;67.52
74232;BME280;62590;52.430;4.902;2022-09-16T06:06:30;100883.25;;;10.01;67.50
74232;BME280;62590;52.430;4.902;2022-09-16T06:08:58;100879.72;;;10.01;67.51
74232;BME280;62590;52.430;4.902;2022-09-16T06:11:25;100876.63;;;10.05;67.51
74232;BME280;62590;52.430;4.902;2022-09-16T06:13:53;100875.81;;;10.05;67.52
74232;BME280;62590;52.430;4.902;2022-09-16T06:16:20;100870.34;;;10.36;67.54
74232;BME280;62590;52.430;4.902;2022-09-16T06:18:45;100866.00;;;10.45;67.54
74232;BME280;62590;52.430;4.902;2022-09-16T06:21:11;100872.75;;;10.39;67.54
74232;BME280;62590;52.430;4.902;2022-09-16T06:23:37;100866.63;;;10.28;67.52
74232;BME280;62590;52.430;4.902;2022-09-16T06:26:20;100866.94;;;10.34;67.54
74232;BME280;62590;52.430;4.902;2022-09-16T06:28:46;100864.22;;;10.25;67.54
74232;BME280;62590;52.430;4.902;2022-09-16T06:31:14;100870.50;;;10.35;67.54
74232;BME280;62590;52.430;4.902;2022-09-16T06:33:41;100875.91;;;10.24;67.53
74232;BME280;62590;52.430;4.902;2022-09-16T06:36:12;100871.53;;;10.23;67.53
74232;BME280;62590;52.430;4.902;2022-09-16T06:38:38;100872.88;;;10.38;67.54
74232;BME280;62590;52.430;4.902;2022-09-16T06:41:05;100865.66;;;10.29;67.53
74232;BME280;62590;52.430;4.902;2022-09-16T06:43:31;100870.88;;;10.30;67.54
74232;BME280;62590;52.430;4.902;2022-09-16T06:46:11;100865.81;;;10.37;67.54
74232;BME280;62590;52.430;4.902;2022-09-16T06:48:39;100863.75;;;10.50;67.55
74232;BME280;62590;52.430;4.902;2022-09-16T06:51:14;100865.03;;;10.55;67.56
74232;BME280;62590;52.430;4.902;2022-09-16T06:53:40;100864.63;;;10.60;67.55
74232;BME280;62590;52.430;4.902;2022-09-16T06:56:12;100876.94;;;10.62;67.56
74232;BME280;62590;52.430;4.902;2022-09-16T06:58:39;100906.31;;;10.64;67.56
74232;BME280;62590;52.430;4.902;2022-09-16T07:03:31;100899.56;;;10.39;67.53
74232;BME280;62590;52.430;4.902;2022-09-16T07:05:57;100897.50;;;10.52;67.55
74232;BME280;62590;52.430;4.902;2022-09-16T07:08:27;100896.94;;;10.49;67.55
74232;BME280;62590;52.430;4.902;2022-09-16T07:11:00;100905.13;;;10.47;67.56
74232;BME280;62590;52.430;4.902;2022-09-16T07:13:26;100897.94;;;10.48;67.54
74232;BME280;62590;52.430;4.902;2022-09-16T07:15:53;100893.03;;;10.62;67.56
74232;BME280;62590;52.430;4.902;2022-09-16T07:18:19;100894.69;;;10.54;67.54
74232;BME280;62590;52.430;4.902;2022-09-16T07:20:44;100893.09;;;10.72;67.56
74232;BME280;62590;52.430;4.902;2022-09-16T07:23:10;100893.66;;;10.76;67.57
74232;BME280;62590;52.430;4.902;2022-09-16T07:25:35;100886.16;;;10.69;67.56
74232;BME280;62590;52.430;4.902;2022-09-16T07:28:01;100885.84;;;10.72;67.56
74232;BME280;62590;52.430;4.902;2022-09-16T07:30:27;100883.75;;;10.66;67.55
74232;BME280;62590;52.430;4.902;2022-09-16T07:32:54;100893.09;;;10.72;67.56
74232;BME280;62590;52.430;4.902;2022-09-16T07:35:19;100892.47;;;10.68;67.55
74232;BME280;62590;52.430;4.902;2022-09-16T07:37:45;100895.75;;;10.72;67.57
74232;BME280;62590;52.430;4.902;2022-09-16T07:40:10;100894.63;;;10.74;67.57
74232;BME280;62590;52.430;4.902;2022-09-16T07:42:37;100887.72;;;10.82;67.58
74232;BME280;62590;52.430;4.902;2022-09-16T07:45:03;100897.22;;;10.95;67.60
74232;BME280;62590;52.430;4.902;2022-09-16T07:47:28;100902.03;;;10.92;67.58
74232;BME280;62590;52.430;4.902;2022-09-16T07:49:53;100905.81;;;10.89;67.58
74232;BME280;62590;52.430;4.902;2022-09-16T07:52:22;100901.16;;;10.91;67.58
74232;BME280;62590;52.430;4.902;2022-09-16T07:54:48;100911.78;;;10.93;67.58
74232;BME280;62590;52.430;4.902;2022-09-16T07:57:14;100896.72;;;11.11;67.59
74232;BME280;62590;52.430;4.902;2022-09-16T07:59:40;100912.84;;;11.30;67.60
74232;BME280;62590;52.430;4.902;2022-09-16T08:02:05;100914.84;;;11.56;67.63
74232;BME280;62590;52.430;4.902;2022-09-16T08:04:30;100920.09;;;11.48;67.61
74232;BME280;62590;52.430;4.902;2022-09-16T08:06:56;100916.25;;;11.51;67.62
74232;BME280;62590;52.430;4.902;2022-09-16T08:09:21;100915.41;;;11.41;67.61
74232;BME280;62590;52.430;4.902;2022-09-16T08:11:47;100923.88;;;11.46;67.62
74232;BME280;62590;52.430;4.902;2022-09-16T08:14:12;100923.16;;;11.34;67.60
74232;BME280;62590;52.430;4.902;2022-09-16T08:16:38;100941.25;;;11.32;67.61
74232;BME280;62590;52.430;4.902;2022-09-16T08:19:03;100946.75;;;11.21;67.59
74232;BME280;62590;52.430;4.902;2022-09-16T08:21:29;100963.88;;;10.81;67.57
74232;BME280;62590;52.430;4.902;2022-09-16T08:23:56;100964.34;;;10.65;67.56
74232;BME280;62590;52.430;4.902;2022-09-16T08:26:21;100968.56;;;10.58;67.56
74232;BME280;62590;52.430;4.902;2022-09-16T08:28:48;100965.81;;;10.48;67.55
74232;BME280;62590;52.430;4.902;2022-09-16T08:31:13;100965.97;;;10.47;67.54
74232;BME280;62590;52.430;4.902;2022-09-16T08:33:40;100969.09;;;10.52;67.55
74232;BME280;62590;52.430;4.902;2022-09-16T08:36:10;100964.00;;;10.49;67.55
74232;BME280;62590;52.430;4.902;2022-09-16T08:38:36;100953.56;;;10.55;67.54
74232;BME280;62590;52.430;4.902;2022-09-16T08:46:46;100998.41;;;10.03;67.52
74232;BME280;62590;52.430;4.902;2022-09-16T08:49:38;100960.75;;;10.25;67.53
74232;BME280;62590;52.430;4.902;2022-09-16T08:52:12;100949.28;;;10.43;67.55
74232;BME280;62590;52.430;4.902;2022-09-16T08:54:41;100951.72;;;10.26;67.53
74232;BME280;62590;52.430;4.902;2022-09-16T08:57:12;100944.59;;;10.15;67.53
74232;BME280;62590;52.430;4.902;2022-09-16T08:59:43;100945.19;;;10.19;67.53
74232;BME280;62590;52.430;4.902;2022-09-16T09:04:35;100939.03;;;10.28;67.54
74232;BME280;62590;52.430;4.902;2022-09-16T09:07:21;100940.25;;;10.44;67.54
74232;BME280;62590;52.430;4.902;2022-09-16T09:10:41;100951.56;;;10.78;67.57
74232;BME280;62590;52.430;4.902;2022-09-16T09:18:24;100987.94;;;10.61;67.57
74232;BME280;62590;52.430;4.902;2022-09-16T09:24:02;100977.81;;;10.44;67.55
74232;BME280;62590;52.430;4.902;2022-09-16T09:42:31;100976.16;;;11.23;67.61
74232;BME280;62590;52.430;4.902;2022-09-16T09:47:36;100977.91;;;11.33;67.61
74232;BME280;62590;52.430;4.902;2022-09-16T09:50:18;100984.25;;;11.32;67.60
74232;BME280;62590;52.430;4.902;2022-09-16T09:55:37;100979.75;;;11.42;67.62
74232;BME280;62590;52.430;4.902;2022-09-16T10:00:48;100959.31;;;11.70;67.64
74232;BME280;62590;52.430;4.902;2022-09-16T10:03:16;100957.03;;;12.04;67.66
74232;BME280;62590;52.430;4.902;2022-09-16T10:05:43;100949.25;;;11.91;67.66
74232;BME280;62590;52.430;4.902;2022-09-16T10:08:21;100952.66;;;11.93;67.64
74232;BME280;62590;52.430;4.902;2022-09-16T10:10:51;100936.38;;;12.04;67.66
74232;BME280;62590;52.430;4.902;2022-09-16T10:13:18;100943.72;;;12.02;67.65
74232;BME280;62590;52.430;4.902;2022-09-16T10:15:45;100943.16;;;12.08;67.66
74232;BME280;62590;52.430;4.902;2022-09-16T10:18:13;100932.41;;;12.08;67.67
74232;BME280;62590;52.430;4.902;2022-09-16T10:20:42;100939.47;;;12.09;67.68
74232;BME280;62590;52.430;4.902;2022-09-16T10:23:12;100931.38;;;12.19;67.67
74232;BME280;62590;52.430;4.902;2022-09-16T10:25:37;100934.50;;;12.14;67.66
74232;BME280;62590;52.430;4.902;2022-09-16T10:28:21;100929.41;;;12.11;67.67
74232;BME280;62590;52.430;4.902;2022-09-16T10:30:49;100927.28;;;12.05;67.68
74232;BME280;62590;52.430;4.902;2022-09-16T10:33:19;100925.63;;;11.95;67.65
74232;BME280;62590;52.430;4.902;2022-09-16T10:35:55;100933.13;;;12.01;67.65
74232;BME280;62590;52.430;4.902;2022-09-16T10:38:25;100954.78;;;11.90;67.66
74232;BME280;62590;52.430;4.902;2022-09-16T10:40:53;100962.06;;;11.49;67.62
74232;BME280;62590;52.430;4.902;2022-09-16T10:43:20;100958.50;;;11.39;67.61
74232;BME280;62590;52.430;4.902;2022-09-16T10:45:49;100960.38;;;11.39;67.61
74232;BME280;62590;52.430;4.902;2022-09-16T10:48:27;100949.78;;;11.37;67.62
74232;BME280;62590;52.430;4.902;2022-09-16T10:51:04;100944.97;;;11.50;67.62
74232;BME280;62590;52.430;4.902;2022-09-16T10:56:02;100943.97;;;11.42;67.62
74232;BME280;62590;52.430;4.902;2022-09-16T10:58:28;100944.28;;;11.48;67.63
74232;BME280;62590;52.430;4.902;2022-09-16T11:06:03;100943.53;;;12.32;67.69
74232;BME280;62590;52.430;4.902;2022-09-16T11:08:55;100937.63;;;12.65;67.71
74232;BME280;62590;52.430;4.902;2022-09-16T11:16:43;100925.13;;;13.28;67.75
74232;BME280;62590;52.430;4.902;2022-09-16T11:19:12;100925.16;;;12.92;67.73
74232;BME280;62590;52.430;4.902;2022-09-16T11:22:09;100933.28;;;12.82;67.72
74232;BME280;62590;52.430;4.902;2022-09-16T11:30:00;100906.66;;;13.69;67.78
74232;BME280;62590;52.430;4.902;2022-09-16T11:38:14;100908.91;;;14.34;67.83
74232;BME280;62590;52.430;4.902;2022-09-16T11:43:50;100919.91;;;13.80;67.80
74232;BME280;62590;52.430;4.902;2022-09-16T11:59:31;100924.91;;;13.57;67.76
74232;BME280;62590;52.430;4.902;2022-09-16T12:02:06;100922.00;;;13.68;67.78
74232;BME280;62590;52.430;4.902;2022-09-16T12:04:44;100921.88;;;13.95;67.80
74232;BME280;62590;52.430;4.902;2022-09-16T12:07:24;100925.50;;;14.04;67.81
74232;BME280;62590;52.430;4.902;2022-09-16T12:12:43;100921.38;;;13.74;67.78
74232;BME280;62590;52.430;4.902;2022-09-16T12:15:33;100918.63;;;14.09;67.81
74232;BME280;62590;52.430;4.902;2022-09-16T12:18:25;100918.38;;;14.20;67.81
74232;BME280;62590;52.430;4.902;2022-09-16T12:21:00;100915.28;;;14.33;67.84
74232;BME280;62590;52.430;4.902;2022-09-16T12:23:31;100913.63;;;14.66;67.84
74232;BME280;62590;52.430;4.902;2022-09-16T12:26:20;100927.91;;;14.84;67.86
74232;BME280;62590;52.430;4.902;2022-09-16T12:29:19;100907.44;;;14.81;67.86
74232;BME280;62590;52.430;4.902;2022-09-16T12:31:53;100912.84;;;14.81;67.86
74232;BME280;62590;52.430;4.902;2022-09-16T12:34:27;100919.31;;;14.96;67.88
74232;BME280;62590;52.430;4.902;2022-09-16T12:37:37;100926.63;;;14.70;67.85
74232;BME280;62590;52.430;4.902;2022-09-16T12:40:00;100922.38;;;14.93;67.88
74232;BME280;62590;52.430;4.902;2022-09-16T12:42:51;100918.69;;;15.02;67.88
74232;BME280;62590;52.430;4.902;2022-09-16T13:02:09;100975.81;;;14.30;67.83
74232;BME280;62590;52.430;4.902;2022-09-16T13:04:40;100955.09;;;13.43;67.77
74232;BME280;62590;52.430;4.902;2022-09-16T13:07:20;100955.28;;;13.14;67.76
74232;BME280;62590;52.430;4.902;2022-09-16T13:09:47;100942.00;;;13.66;67.79
74232;BME280;62590;52.430;4.902;2022-09-16T13:12:24;100942.00;;;14.01;67.81
74232;BME280;62590;52.430;4.902;2022-09-16T13:14:55;100925.38;;;14.31;67.82
74232;BME280;62590;52.430;4.902;2022-09-16T13:17:32;100932.66;;;14.13;67.82
74232;BME280;62590;52.430;4.902;2022-09-16T13:20:13;100930.09;;;13.68;67.78
74232;BME280;62590;52.430;4.902;2022-09-16T13:28:34;100931.00;;;13.77;67.79
74232;BME280;62590;52.430;4.902;2022-09-16T13:38:38;100940.25;;;13.74;67.79
74232;BME280;62590;52.430;4.902;2022-09-16T13:41:04;100929.53;;;14.25;67.84
74232;BME280;62590;52.430;4.902;2022-09-16T13:43:33;100925.91;;;14.34;67.83
74232;BME280;62590;52.430;4.902;2022-09-16T13:46:05;100932.59;;;14.48;67.85
74232;BME280;62590;52.430;4.902;2022-09-16T13:48:39;100932.53;;;14.40;67.84
74232;BME280;62590;52.430;4.902;2022-09-16T13:51:09;100927.53;;;14.53;67.84
74232;BME280;62590;52.430;4.902;2022-09-16T13:53:43;100921.31;;;14.52;67.86
74232;BME280;62590;52.430;4.902;2022-09-16T14:01:38;100927.59;;;14.95;67.87
74232;BME280;62590;52.430;4.902;2022-09-16T14:06:56;100924.03;;;14.94;67.87
74232;BME280;62590;52.430;4.902;2022-09-16T14:14:46;100918.88;;;14.75;67.86
74232;BME280;62590;52.430;4.902;2022-09-16T14:17:38;100913.31;;;15.10;67.89
74232;BME280;62590;52.430;4.902;2022-09-16T14:20:11;100911.25;;;15.04;67.88
74232;BME280;62590;52.430;4.902;2022-09-16T14:22:39;100912.84;;;15.23;67.90
74232;BME280;62590;52.430;4.902;2022-09-16T14:25:24;100929.38;;;14.78;67.86
74232;BME280;62590;52.430;4.902;2022-09-16T14:27:50;100922.19;;;14.95;67.88
74232;BME280;62590;52.430;4.902;2022-09-16T14:30:17;100913.59;;;14.99;67.88
74232;BME280;62590;52.430;4.902;2022-09-16T14:32:44;100907.22;;;15.08;67.88
74232;BME280;62590;52.430;4.902;2022-09-16T14:35:20;100916.84;;;15.03;67.88
74232;BME280;62590;52.430;4.902;2022-09-16T14:37:56;100916.91;;;15.27;67.90
74232;BME280;62590;52.430;4.902;2022-09-16T14:40:24;100906.75;;;15.21;67.90
74232;BME280;62590;52.430;4.902;2022-09-16T14:42:54;100918.78;;;15.34;67.91
74232;BME280;62590;52.430;4.902;2022-09-16T14:45:21;100917.22;;;15.16;67.90
74232;BME280;62590;52.430;4.902;2022-09-16T14:47:48;100910.31;;;15.21;67.91
74232;BME280;62590;52.430;4.902;2022-09-16T14:50:22;100918.41;;;15.21;67.89
74232;BME280;62590;52.430;4.902;2022-09-16T14:52:57;100927.91;;;14.84;67.87
74232;BME280;62590;52.430;4.902;2022-09-16T14:55:26;100927.44;;;14.96;67.87
74232;BME280;62590;52.430;4.902;2022-09-16T14:57:54;100923.53;;;14.31;67.83
74232;BME280;62590;52.430;4.902;2022-09-16T15:00:20;100918.53;;;14.19;67.82
74232;BME280;62590;52.430;4.902;2022-09-16T15:03:16;100931.38;;;14.42;67.84
74232;BME280;62590;52.430;4.902;2022-09-16T15:05:45;100936.44;;;14.71;67.86
74232;BME280;62590;52.430;4.902;2022-09-16T15:10:52;100929.94;;;14.90;67.87
74232;BME280;62590;52.430;4.902;2022-09-16T15:13:23;100915.75;;;14.88;67.88
74232;BME280;62590;52.430;4.902;2022-09-16T15:16:00;100918.34;;;14.97;67.87
74232;BME280;62590;52.430;4.902;2022-09-16T15:18:33;100918.00;;;15.00;67.88
74232;BME280;62590;52.430;4.902;2022-09-16T15:23:33;100924.84;;;14.79;67.86
74232;BME280;62590;52.430;4.902;2022-09-16T15:26:18;100935.91;;;14.68;67.86
74232;BME280;62590;52.430;4.902;2022-09-16T15:28:57;100926.75;;;14.61;67.85
74232;BME280;62590;52.430;4.902;2022-09-16T15:31:38;100927.28;;;14.38;67.83
74232;BME280;62590;52.430;4.902;2022-09-16T15:39:32;100917.97;;;14.58;67.84
74232;BME280;62590;52.430;4.902;2022-09-16T15:42:17;100911.19;;;14.88;67.87
74232;BME280;62590;52.430;4.902;2022-09-16T15:44:57;100908.34;;;14.90;67.87
74232;BME280;62590;52.430;4.902;2022-09-16T15:50:06;100910.19;;;14.55;67.84
74232;BME280;62590;52.430;4.902;2022-09-16T15:52:49;100950.47;;;14.06;67.82
74232;BME280;62590;52.430;4.902;2022-09-16T15:58:05;100936.09;;;13.62;67.79
74232;BME280;62590;52.430;4.902;2022-09-16T16:00:59;100937.94;;;13.61;67.79
74232;BME280;62590;52.430;4.902;2022-09-16T16:03:29;100935.47;;;13.50;67.78
74232;BME280;62590;52.430;4.902;2022-09-16T16:05:56;100931.53;;;13.63;67.78
74232;BME280;62590;52.430;4.902;2022-09-16T16:08:42;100933.94;;;13.83;67.80
74232;BME280;62590;52.430;4.902;2022-09-16T16:11:10;100935.16;;;13.89;67.81
74232;BME280;62590;52.430;4.902;2022-09-16T16:13:36;100933.09;;;14.08;67.82
74232;BME280;62590;52.430;4.902;2022-09-16T16:16:03;100923.06;;;13.93;67.81
74232;BME280;62590;52.430;4.902;2022-09-16T16:18:30;100921.63;;;14.06;67.82